Sawyer, Minnesota
Current Conditions -  °F | °C
As of 12:37 AM on Thursday 27 Nov 2014 (Local Time) from KCOQ Reporting Station
Clear Clear  
Wind Chill: -17°   Ceiling: Unl
Heat Index: -2°   Visibility: 10mi
Dew Point: -8°   Wind: 8mph
Humidity: 78%   Direction: 320°NW
Pressure: 30.37"   Gusts: NA
Location:  46.67°N, 92.63°W
Report Text: KCOQ 270637Z AUTO 32007KT 10SM CLR M19/M22 A3037 RMK AO2
Loading
Personal Weather Stations






























Interactive Weather Map New forecast layout! Learn more

10-Day Weather Forecast

Advertisements
Track Severe Weather on mobile